createdAt,value
2017-07-19T00:00:25.598Z,0
2017-07-19T00:01:25.588Z,0
2017-07-19T00:02:25.558Z,0
2017-07-19T00:03:25.568Z,0
2017-07-19T00:04:25.256Z,0
2017-07-19T00:05:25.251Z,0
2017-07-19T00:06:25.223Z,0
2017-07-19T00:07:25.219Z,0
2017-07-19T00:08:25.522Z,0
2017-07-19T00:09:25.513Z,0
2017-07-19T00:10:25.187Z,0
2017-07-19T00:11:24.869Z,0
2017-07-19T00:12:25.470Z,0
2017-07-19T00:13:25.170Z,0
2017-07-19T00:14:25.459Z,0
2017-07-19T00:15:25.447Z,0
2017-07-19T00:16:25.442Z,0
2017-07-19T00:17:25.423Z,0
2017-07-19T00:18:25.414Z,0
2017-07-19T00:19:25.098Z,0
2017-07-19T00:20:25.092Z,0
2017-07-19T00:21:25.414Z,0
2017-07-19T00:22:25.069Z,0
2017-07-19T00:23:25.370Z,0
2017-07-19T00:24:25.363Z,0
2017-07-19T00:25:25.374Z,0
2017-07-19T00:26:25.029Z,0
2017-07-19T00:27:25.320Z,0
2017-07-19T00:28:25.018Z,0
2017-07-19T00:29:25.314Z,0
2017-07-19T00:30:24.986Z,0
2017-07-19T00:31:25.329Z,0
2017-07-19T00:32:25.278Z,0
2017-07-19T00:33:25.272Z,0
2017-07-19T00:34:25.252Z,0
2017-07-19T00:35:25.266Z,0
2017-07-19T00:36:25.246Z,0
2017-07-19T00:37:24.934Z,0
2017-07-19T00:38:24.905Z,0
2017-07-19T00:39:25.213Z,0
2017-07-19T00:40:25.221Z,0
2017-07-19T00:41:25.184Z,0
2017-07-19T00:42:24.881Z,0
2017-07-19T00:43:25.163Z,0
2017-07-19T00:44:25.146Z,0
2017-07-19T00:45:24.836Z,0
2017-07-19T00:46:25.132Z,0
2017-07-19T00:47:24.843Z,0
2017-07-19T00:48:25.126Z,0
2017-07-19T00:49:25.119Z,0
2017-07-19T00:50:25.098Z,0
2017-07-19T00:51:25.107Z,0
2017-07-19T00:52:25.089Z,0
2017-07-19T00:53:24.785Z,0
2017-07-19T00:54:25.067Z,0
2017-07-19T00:55:25.051Z,0
2017-07-19T00:56:25.039Z,0
2017-07-19T00:57:25.061Z,0
2017-07-19T00:58:38.910Z,0
2017-07-19T00:59:25.029Z,0
2017-07-19T01:00:24.994Z,0
2017-07-19T01:01:25.004Z,0
2017-07-19T01:02:24.991Z,0
2017-07-19T01:03:25.196Z,0
2017-07-19T01:04:24.859Z,0
2017-07-19T01:05:24.651Z,0
2017-07-19T01:06:24.668Z,0
2017-07-19T01:07:25.148Z,0
2017-07-19T01:08:24.633Z,0
2017-07-19T01:09:25.126Z,0
2017-07-19T01:10:24.922Z,0
2017-07-19T01:11:24.904Z,0
2017-07-19T01:12:24.886Z,0
2017-07-19T01:13:24.583Z,0
2017-07-19T01:14:24.877Z,0
2017-07-19T01:15:24.871Z,0
2017-07-19T01:16:24.855Z,0
2017-07-19T01:17:24.836Z,0
2017-07-19T01:18:24.844Z,0
2017-07-19T01:19:24.854Z,0
2017-07-19T01:20:24.823Z,0
2017-07-19T01:21:24.801Z,0
2017-07-19T01:22:24.794Z,0
2017-07-19T01:23:24.824Z,0
2017-07-19T01:24:24.786Z,0
2017-07-19T01:25:24.781Z,0
2017-07-19T01:26:24.763Z,0
2017-07-19T01:27:24.768Z,0
2017-07-19T01:28:24.444Z,0
2017-07-19T01:29:24.746Z,0
2017-07-19T01:30:24.739Z,0
2017-07-19T01:31:24.732Z,0
2017-07-19T01:32:24.715Z,0
2017-07-19T01:33:24.407Z,0
2017-07-19T01:34:24.703Z,0
2017-07-19T01:35:24.893Z,0
2017-07-19T01:36:24.679Z,0
2017-07-19T01:37:24.678Z,0
2017-07-19T01:38:24.654Z,0
2017-07-19T01:39:24.668Z,0
2017-07-19T01:40:24.560Z,0
2017-07-19T01:41:24.831Z,0
2017-07-19T01:42:24.630Z,0
2017-07-19T01:43:24.625Z,0
2017-07-19T01:44:24.604Z,0
2017-07-19T01:45:24.598Z,0
2017-07-19T01:46:24.801Z,0
2017-07-19T01:47:24.570Z,0
2017-07-19T01:48:24.562Z,0
2017-07-19T01:49:24.541Z,0
2017-07-19T01:50:24.556Z,0
2017-07-19T01:51:24.545Z,0
2017-07-19T01:52:24.557Z,0
2017-07-19T01:53:24.516Z,0
2017-07-19T01:54:24.535Z,0
2017-07-19T01:55:24.202Z,0
2017-07-19T01:56:24.492Z,0
2017-07-19T01:57:24.196Z,0
2017-07-19T01:58:24.469Z,0
2017-07-19T01:59:24.462Z,0
2017-07-19T02:00:24.147Z,0
2017-07-19T02:01:24.133Z,0
2017-07-19T02:02:30.023Z,0
2017-07-19T02:03:24.136Z,0
2017-07-19T02:04:24.410Z,0
2017-07-19T02:05:24.408Z,0
2017-07-19T02:06:24.410Z,0
2017-07-19T02:07:26.851Z,0
2017-07-19T02:08:24.366Z,0
2017-07-19T02:09:24.370Z,0
2017-07-19T02:10:24.362Z,0
2017-07-19T02:11:24.042Z,0
2017-07-19T02:12:26.898Z,0
2017-07-19T02:13:24.039Z,0
2017-07-19T02:14:24.336Z,0
2017-07-19T02:15:24.013Z,0
2017-07-19T02:16:24.306Z,0
2017-07-19T02:17:26.622Z,0
2017-07-19T02:18:24.214Z,0
2017-07-19T02:19:37.602Z,0
2017-07-19T02:20:24.267Z,0
2017-07-19T02:21:24.255Z,0
2017-07-19T02:22:27.592Z,0
2017-07-19T02:23:24.436Z,0
2017-07-19T02:24:24.438Z,0
2017-07-19T02:25:24.213Z,0
2017-07-19T02:26:27.853Z,0
2017-07-19T02:27:24.201Z,0
2017-07-19T02:28:24.206Z,0
2017-07-19T02:29:24.194Z,0
2017-07-19T02:30:23.868Z,0
2017-07-19T02:31:24.170Z,0
2017-07-19T02:32:23.864Z,0
2017-07-19T02:33:24.158Z,0
2017-07-19T02:34:24.137Z,0
2017-07-19T02:35:24.131Z,0
2017-07-19T02:36:23.819Z,0
2017-07-19T02:37:23.805Z,0
2017-07-19T02:38:24.105Z,0
2017-07-19T02:39:24.099Z,0
2017-07-19T02:40:23.786Z,0
2017-07-19T02:41:24.066Z,0
2017-07-19T02:42:23.753Z,0
2017-07-19T02:43:24.042Z,0
2017-07-19T02:44:24.030Z,0
2017-07-19T02:45:23.741Z,0
2017-07-19T02:46:23.729Z,0
2017-07-19T02:47:24.014Z,0
2017-07-19T02:48:24.020Z,0
2017-07-19T02:49:23.700Z,0
2017-07-19T02:50:23.683Z,0
2017-07-19T02:51:37.224Z,0
2017-07-19T02:52:23.894Z,0
2017-07-19T02:53:23.952Z,0
2017-07-19T02:54:23.339Z,0
2017-07-19T02:55:23.943Z,0
2017-07-19T02:56:23.545Z,0
2017-07-19T02:57:37.256Z,0
2017-07-19T02:58:23.297Z,0
2017-07-19T02:59:23.295Z,0
2017-07-19T03:00:23.313Z,0
2017-07-19T03:01:23.581Z,0
2017-07-19T03:02:23.267Z,0
2017-07-19T03:03:23.567Z,0
2017-07-19T03:04:22.946Z,0
2017-07-19T03:05:23.569Z,0
2017-07-19T03:06:23.834Z,0
2017-07-19T03:07:23.833Z,0
2017-07-19T03:08:23.829Z,0
2017-07-19T03:09:23.510Z,0
2017-07-19T03:10:23.493Z,0
2017-07-19T03:11:23.821Z,0
2017-07-19T03:12:23.460Z,0
2017-07-19T03:13:23.784Z,0
2017-07-19T03:14:23.456Z,0
2017-07-19T03:15:22.850Z,0
2017-07-19T03:16:23.750Z,0
2017-07-19T03:17:23.433Z,0
2017-07-19T03:18:23.407Z,0
2017-07-19T03:19:23.415Z,0
2017-07-19T03:20:23.413Z,0
2017-07-19T03:21:23.112Z,0
2017-07-19T03:22:23.384Z,0
2017-07-19T03:23:23.668Z,0
2017-07-19T03:24:23.665Z,0
2017-07-19T03:25:23.273Z,0
2017-07-19T03:26:23.356Z,5
2017-07-19T03:27:23.350Z,5
2017-07-19T03:28:23.032Z,5
2017-07-19T03:29:23.507Z,5
2017-07-19T03:30:23.247Z,5
2017-07-19T03:31:23.295Z,10
2017-07-19T03:32:22.988Z,10
2017-07-19T03:33:23.268Z,10
2017-07-19T03:34:23.465Z,10
2017-07-19T03:35:23.255Z,15
2017-07-19T03:36:23.265Z,15
2017-07-19T03:37:23.271Z,15
2017-07-19T03:38:23.236Z,20
2017-07-19T03:39:23.719Z,20
2017-07-19T03:40:23.534Z,25
2017-07-19T03:41:23.518Z,25
2017-07-19T03:42:23.504Z,25
2017-07-19T03:43:22.891Z,30
2017-07-19T03:44:23.682Z,35
2017-07-19T03:45:23.499Z,35
2017-07-19T03:46:23.151Z,40
2017-07-19T03:47:23.155Z,40
2017-07-19T03:48:22.530Z,40
2017-07-19T03:49:22.824Z,45
2017-07-19T03:50:23.426Z,50
2017-07-19T03:51:23.116Z,50
2017-07-19T03:52:23.101Z,55
2017-07-19T03:53:23.097Z,60
2017-07-19T03:54:23.076Z,60
2017-07-19T03:55:23.067Z,60
2017-07-19T03:56:23.064Z,65
2017-07-19T03:57:23.361Z,65
2017-07-19T03:58:23.336Z,70
2017-07-19T03:59:23.340Z,70
2017-07-19T04:00:23.320Z,75
2017-07-19T04:01:23.334Z,75
2017-07-19T04:02:23.314Z,80
2017-07-19T04:03:23.303Z,85
2017-07-19T04:04:23.301Z,90
2017-07-19T04:05:23.284Z,90
2017-07-19T04:06:23.487Z,95
2017-07-19T04:07:22.975Z,100
2017-07-19T04:08:23.251Z,100
2017-07-19T04:09:23.248Z,105
2017-07-19T04:10:23.231Z,110
2017-07-19T04:11:23.439Z,115
2017-07-19T04:12:23.416Z,120
2017-07-19T04:13:23.198Z,125
2017-07-19T04:14:23.217Z,130
2017-07-19T04:15:23.178Z,130
2017-07-19T04:16:22.859Z,135
2017-07-19T04:17:23.150Z,140
2017-07-19T04:18:23.148Z,140
2017-07-19T04:19:23.157Z,145
2017-07-19T04:20:22.839Z,150
2017-07-19T04:21:23.126Z,155
2017-07-19T04:22:22.803Z,165
2017-07-19T04:23:23.107Z,185
2017-07-19T04:24:22.473Z,195
2017-07-19T04:25:23.081Z,200
2017-07-19T04:26:23.090Z,215
2017-07-19T04:27:23.055Z,215
2017-07-19T04:28:23.033Z,230
2017-07-19T04:29:23.042Z,240
2017-07-19T04:30:22.742Z,230
2017-07-19T04:31:22.710Z,240
2017-07-19T04:32:23.016Z,245
2017-07-19T04:33:22.996Z,245
2017-07-19T04:34:22.988Z,240
2017-07-19T04:35:22.993Z,250
2017-07-19T04:36:22.664Z,250
2017-07-19T04:37:22.958Z,250
2017-07-19T04:38:22.657Z,255
2017-07-19T04:39:36.303Z,260
2017-07-19T04:40:22.938Z,265
2017-07-19T04:41:22.937Z,270
2017-07-19T04:42:22.928Z,275
2017-07-19T04:43:22.923Z,280
2017-07-19T04:44:22.906Z,315
2017-07-19T04:45:22.890Z,425
2017-07-19T04:46:22.876Z,480
2017-07-19T04:47:22.880Z,500
2017-07-19T04:48:23.058Z,520
2017-07-19T04:49:22.743Z,510
2017-07-19T04:50:22.540Z,515
2017-07-19T04:51:22.840Z,520
2017-07-19T04:52:22.810Z,525
2017-07-19T04:53:23.019Z,530
2017-07-19T04:54:22.807Z,540
2017-07-19T04:55:22.780Z,540
2017-07-19T04:56:22.772Z,555
2017-07-19T04:57:22.772Z,575
2017-07-19T04:58:22.744Z,590
2017-07-19T04:59:22.742Z,615
2017-07-19T05:00:22.740Z,625
2017-07-19T05:01:22.716Z,635
2017-07-19T05:02:22.711Z,655
2017-07-19T05:03:22.418Z,660
2017-07-19T05:04:22.710Z,655
2017-07-19T05:05:22.697Z,670
2017-07-19T05:06:22.702Z,710
2017-07-19T05:07:22.675Z,720
2017-07-19T05:08:22.659Z,745
2017-07-19T05:09:22.650Z,795
2017-07-19T05:10:22.333Z,790
2017-07-19T05:11:22.627Z,770
2017-07-19T05:12:22.619Z,785
2017-07-19T05:13:22.620Z,820
2017-07-19T05:14:22.631Z,815
2017-07-19T05:15:21.980Z,830
2017-07-19T05:16:22.491Z,845
2017-07-19T05:17:22.628Z,870
2017-07-19T05:18:22.569Z,855
2017-07-19T05:19:22.558Z,880
2017-07-19T05:21:22.230Z,915
2017-07-19T05:22:22.535Z,820
2017-07-19T05:23:22.533Z,955
2017-07-19T05:24:22.532Z,940
2017-07-19T05:25:21.901Z,885
2017-07-19T05:26:22.203Z,870
2017-07-19T05:27:22.191Z,925
2017-07-19T05:28:22.171Z,930
2017-07-19T05:29:22.198Z,960
2017-07-19T05:30:22.460Z,1025
2017-07-19T05:31:21.859Z,1115
2017-07-19T05:32:22.465Z,1305
2017-07-19T05:33:22.436Z,1230
2017-07-19T05:34:22.130Z,1115
2017-07-19T05:35:22.440Z,1160
2017-07-19T05:36:22.129Z,1130
2017-07-19T05:37:22.420Z,820
2017-07-19T05:38:22.122Z,585
2017-07-19T05:39:22.092Z,675
2017-07-19T05:40:22.408Z,800
2017-07-19T05:41:22.089Z,1115
2017-07-19T05:42:22.102Z,1325
2017-07-19T05:43:22.078Z,860
2017-07-19T05:44:22.054Z,1070
2017-07-19T05:45:22.360Z,950
2017-07-19T05:46:22.041Z,950
2017-07-19T05:47:22.347Z,795
2017-07-19T05:48:22.342Z,1070
2017-07-19T05:49:22.334Z,1355
2017-07-19T05:50:22.043Z,1035
2017-07-19T05:51:22.313Z,935
2017-07-19T05:52:21.999Z,910
2017-07-19T05:53:22.301Z,810
2017-07-19T05:54:22.295Z,700
2017-07-19T05:55:21.989Z,590
2017-07-19T05:56:21.974Z,520
2017-07-19T05:57:21.958Z,470
2017-07-19T05:58:22.278Z,470
2017-07-19T05:59:22.270Z,455
2017-07-19T06:00:21.341Z,405
2017-07-19T06:01:21.926Z,390
2017-07-19T06:02:21.331Z,330
2017-07-19T06:03:21.932Z,320
2017-07-19T06:04:21.609Z,345
2017-07-19T06:05:21.604Z,405
2017-07-19T06:06:22.212Z,430
2017-07-19T06:07:21.278Z,395
2017-07-19T06:08:21.579Z,415
2017-07-19T06:09:22.176Z,565
2017-07-19T06:10:22.185Z,620
2017-07-19T06:11:22.154Z,600
2017-07-19T06:12:22.153Z,470
2017-07-19T06:13:22.162Z,395
2017-07-19T06:14:21.815Z,315
2017-07-19T06:15:21.846Z,285
2017-07-19T06:16:22.166Z,325
2017-07-19T06:17:22.098Z,375
2017-07-19T06:18:21.489Z,350
2017-07-19T06:19:21.482Z,300
2017-07-19T06:20:21.773Z,295
2017-07-19T06:21:21.763Z,295
2017-07-19T06:22:21.757Z,315
2017-07-19T06:23:22.061Z,385
2017-07-19T06:24:25.063Z,460
2017-07-19T06:25:21.424Z,520
2017-07-19T06:26:22.018Z,500
2017-07-19T06:27:21.715Z,420
2017-07-19T06:28:21.702Z,435
2017-07-19T06:29:27.752Z,510
2017-07-19T06:30:24.995Z,615
2017-07-19T06:31:21.065Z,665
2017-07-19T06:32:21.364Z,640
2017-07-19T06:33:21.372Z,615
2017-07-19T06:34:21.356Z,660
2017-07-19T06:35:27.347Z,735
2017-07-19T06:36:21.953Z,730
2017-07-19T06:37:21.650Z,665
2017-07-19T06:38:21.331Z,630
2017-07-19T06:39:21.608Z,620
2017-07-19T06:40:21.598Z,680
2017-07-19T06:41:21.290Z,770
2017-07-19T06:42:21.282Z,750
2017-07-19T06:43:21.265Z,765
2017-07-19T06:44:21.579Z,895
2017-07-19T06:45:21.255Z,830
2017-07-19T06:46:21.852Z,835
2017-07-19T06:47:21.534Z,880
2017-07-19T06:48:21.825Z,855
2017-07-19T06:49:21.843Z,640
2017-07-19T06:51:21.498Z,355
2017-07-19T06:52:21.809Z,305
2017-07-19T06:53:21.495Z,265
2017-07-19T06:54:21.481Z,200
2017-07-19T06:55:21.797Z,160
2017-07-19T06:56:21.803Z,165
2017-07-19T06:57:20.852Z,135
2017-07-19T06:58:21.459Z,125
2017-07-19T06:59:21.435Z,130
2017-07-19T07:00:21.438Z,150
2017-07-19T07:01:21.438Z,175
2017-07-19T07:02:21.428Z,170
2017-07-19T07:03:21.427Z,165
2017-07-19T07:04:21.394Z,190
2017-07-19T07:05:21.691Z,170
2017-07-19T07:06:21.690Z,155
2017-07-19T07:07:21.688Z,160
2017-07-19T07:08:21.690Z,175
2017-07-19T07:09:21.654Z,205
2017-07-19T07:10:21.057Z,235
2017-07-19T07:11:21.356Z,255
2017-07-19T07:12:21.635Z,360
2017-07-19T07:13:21.331Z,370
2017-07-19T07:14:21.626Z,400
2017-07-19T07:15:21.327Z,585
2017-07-19T07:16:21.611Z,720
2017-07-19T07:17:21.314Z,915
2017-07-19T07:18:21.296Z,1170
2017-07-19T07:19:21.281Z,760
2017-07-19T07:20:20.985Z,1085
2017-07-19T07:21:21.278Z,1025
2017-07-19T07:22:21.583Z,915
2017-07-19T07:23:21.248Z,890
2017-07-19T07:24:21.559Z,1045
2017-07-19T07:25:20.938Z,1035
2017-07-19T07:26:21.567Z,1035
2017-07-19T07:27:20.928Z,710
2017-07-19T07:28:21.528Z,1045
2017-07-19T07:29:21.223Z,1020
2017-07-19T07:30:21.212Z,865
2017-07-19T07:31:21.194Z,865
2017-07-19T07:32:20.886Z,1110
2017-07-19T07:33:21.489Z,1375
2017-07-19T07:34:21.479Z,1290
2017-07-19T07:35:21.475Z,1455
2017-07-19T07:36:21.486Z,1300
2017-07-19T07:37:21.456Z,1230
2017-07-19T07:38:20.852Z,1205
2017-07-19T07:39:21.137Z,1060
2017-07-19T07:40:21.440Z,1040
2017-07-19T07:41:20.836Z,1300
2017-07-19T07:42:21.433Z,1420
2017-07-19T07:43:21.405Z,940
2017-07-19T07:44:21.094Z,620
2017-07-19T07:45:21.094Z,800
2017-07-19T07:46:21.095Z,780
2017-07-19T07:47:21.386Z,625
2017-07-19T07:48:21.088Z,615
2017-07-19T07:49:21.374Z,675
2017-07-19T07:50:21.059Z,740
2017-07-19T07:51:21.344Z,740
2017-07-19T07:52:21.037Z,925
2017-07-19T07:53:21.351Z,1395
2017-07-19T07:54:21.031Z,1265
2017-07-19T07:55:21.031Z,615
2017-07-19T07:56:21.009Z,555
2017-07-19T07:57:21.011Z,555
2017-07-19T07:58:21.001Z,530
2017-07-19T07:59:21.296Z,870
2017-07-19T08:00:20.988Z,1255
2017-07-19T08:01:21.272Z,1265
2017-07-19T08:02:21.279Z,1455
2017-07-19T08:03:20.998Z,2475
2017-07-19T08:04:20.959Z,2980
2017-07-19T08:05:20.947Z,3040
2017-07-19T08:06:21.250Z,2385
2017-07-19T08:07:21.233Z,2095
2017-07-19T08:08:21.210Z,1410
2017-07-19T08:09:21.213Z,2015
2017-07-19T08:10:21.198Z,1970
2017-07-19T08:11:21.214Z,1430
2017-07-19T08:12:20.891Z,1095
2017-07-19T08:13:21.175Z,1355
2017-07-19T08:14:20.878Z,1390
2017-07-19T08:15:21.168Z,1570
2017-07-19T08:16:21.166Z,1760
2017-07-19T08:17:21.138Z,2065
2017-07-19T08:18:21.158Z,1820
2017-07-19T08:19:21.127Z,2055
2017-07-19T08:20:21.133Z,3030
2017-07-19T08:21:21.122Z,4365
2017-07-19T08:22:20.814Z,3700
2017-07-19T08:23:20.794Z,3475
2017-07-19T08:24:20.806Z,3260
2017-07-19T08:25:21.098Z,4340
2017-07-19T08:26:21.109Z,4070
2017-07-19T08:27:21.082Z,2065
2017-07-19T08:28:20.780Z,3750
2017-07-19T08:29:20.448Z,2415
2017-07-19T08:30:20.754Z,4310
2017-07-19T08:31:21.029Z,2240
2017-07-19T08:32:21.041Z,2400
2017-07-19T08:33:21.021Z,2865
2017-07-19T08:34:21.040Z,2005
2017-07-19T08:35:21.005Z,2800
2017-07-19T08:36:21.000Z,3215
2017-07-19T08:37:20.396Z,3110
2017-07-19T08:38:20.991Z,2195
2017-07-19T08:39:20.982Z,1815
2017-07-19T08:40:20.673Z,1975
2017-07-19T08:41:20.667Z,2800
2017-07-19T08:42:20.961Z,4260
2017-07-19T08:43:20.956Z,2580
2017-07-19T08:44:20.949Z,4275
2017-07-19T08:45:20.653Z,2485
2017-07-19T08:46:20.634Z,4440
2017-07-19T08:47:20.932Z,1670
2017-07-19T08:48:20.615Z,2770
2017-07-19T08:49:20.928Z,3245
2017-07-19T08:50:20.607Z,3730
2017-07-19T08:51:20.606Z,2835
2017-07-19T08:52:20.894Z,1750
2017-07-19T08:53:20.596Z,1560
2017-07-19T08:54:20.627Z,1590
2017-07-19T08:55:20.568Z,1375
2017-07-19T08:56:20.874Z,1745
2017-07-19T08:57:20.562Z,1830
2017-07-19T08:58:20.267Z,1545
2017-07-19T08:59:20.847Z,1435
2017-07-19T09:00:20.545Z,1185
2017-07-19T09:01:20.531Z,1360
2017-07-19T09:02:20.849Z,1815
2017-07-19T09:03:20.823Z,2035
2017-07-19T09:04:20.518Z,2070
2017-07-19T09:05:20.499Z,1745
2017-07-19T09:06:20.797Z,1245
2017-07-19T09:07:20.855Z,1110
2017-07-19T09:08:20.796Z,1185
2017-07-19T09:09:20.825Z,835
2017-07-19T09:10:20.783Z,565
2017-07-19T09:11:20.777Z,475
2017-07-19T09:12:19.844Z,370
2017-07-19T09:13:20.136Z,435
2017-07-19T09:14:20.734Z,565
2017-07-19T09:15:20.446Z,800
2017-07-19T09:16:20.734Z,3265
2017-07-19T09:17:20.733Z,4075
2017-07-19T09:18:20.725Z,3520
2017-07-19T09:19:20.713Z,2540
2017-07-19T09:20:20.691Z,4295
2017-07-19T09:21:20.372Z,3835
2017-07-19T09:22:20.389Z,3945
2017-07-19T09:23:20.672Z,4200
2017-07-19T09:24:20.674Z,4085
2017-07-19T09:25:20.685Z,4360
2017-07-19T09:26:20.669Z,4585
2017-07-19T09:27:20.636Z,4095
2017-07-19T09:28:20.342Z,3220
2017-07-19T09:29:20.651Z,2465
2017-07-19T09:30:20.634Z,5010
2017-07-19T09:31:20.637Z,3710
2017-07-19T09:32:20.628Z,835
2017-07-19T09:33:20.599Z,780
2017-07-19T09:34:20.316Z,880
2017-07-19T09:35:20.607Z,1175
2017-07-19T09:36:20.601Z,1960
2017-07-19T09:37:20.575Z,4170
2017-07-19T09:38:20.272Z,1295
2017-07-19T09:39:20.268Z,1080
2017-07-19T09:40:20.563Z,1265
2017-07-19T09:41:20.568Z,1655
2017-07-19T09:42:20.247Z,1900
2017-07-19T09:43:20.243Z,5120
2017-07-19T09:44:20.555Z,2395
2017-07-19T09:45:20.546Z,5680
2017-07-19T09:46:20.219Z,5525
2017-07-19T09:47:20.222Z,4245
2017-07-19T09:48:20.513Z,1960
2017-07-19T09:49:20.208Z,1795
2017-07-19T09:50:20.515Z,1365
2017-07-19T09:51:20.185Z,1225
2017-07-19T09:52:20.190Z,1090
2017-07-19T09:53:20.490Z,945
2017-07-19T09:54:20.482Z,810
2017-07-19T09:55:20.481Z,690
2017-07-19T09:56:20.164Z,580
2017-07-19T09:57:20.160Z,505
2017-07-19T09:58:20.457Z,430
2017-07-19T09:59:20.442Z,375
2017-07-19T10:00:20.127Z,360
2017-07-19T10:01:20.118Z,355
2017-07-19T10:02:20.407Z,345
2017-07-19T10:03:20.413Z,325
2017-07-19T10:04:20.391Z,290
2017-07-19T10:05:20.386Z,260
2017-07-19T10:06:20.367Z,270
2017-07-19T10:07:20.368Z,325
2017-07-19T10:08:20.362Z,450
2017-07-19T10:09:20.374Z,575
2017-07-19T10:10:20.346Z,780
2017-07-19T10:11:20.339Z,1135
2017-07-19T10:12:20.321Z,4740
2017-07-19T10:13:20.322Z,5035
2017-07-19T10:14:20.323Z,4815
2017-07-19T10:15:20.302Z,4705
2017-07-19T10:16:20.298Z,4925
2017-07-19T10:17:20.316Z,5655
2017-07-19T10:18:20.291Z,5100
2017-07-19T10:19:20.289Z,4020
2017-07-19T10:20:20.292Z,4420
2017-07-19T10:21:20.261Z,5205
2017-07-19T10:22:20.272Z,5835
2017-07-19T10:23:19.967Z,6005
2017-07-19T10:24:20.247Z,5455
2017-07-19T10:25:20.234Z,5130
2017-07-19T10:26:20.222Z,4695
2017-07-19T10:27:20.225Z,4170
2017-07-19T10:28:20.210Z,2235
2017-07-19T10:29:20.212Z,4640
2017-07-19T10:30:20.199Z,4925
2017-07-19T10:31:20.214Z,5175
2017-07-19T10:32:20.184Z,4535
2017-07-19T10:33:20.184Z,5210
2017-07-19T10:34:20.185Z,5430
2017-07-19T10:35:19.871Z,4865
2017-07-19T10:36:20.168Z,5130
2017-07-19T10:37:20.156Z,5320
2017-07-19T10:38:20.139Z,5325
2017-07-19T10:39:20.138Z,5650
2017-07-19T10:40:20.158Z,5015
2017-07-19T10:41:19.829Z,2400
2017-07-19T10:42:20.141Z,1800
2017-07-19T10:43:19.819Z,1605
2017-07-19T10:44:20.122Z,1620
2017-07-19T10:45:20.113Z,1670
2017-07-19T10:46:20.118Z,2895
2017-07-19T10:47:19.795Z,5095
2017-07-19T10:48:20.085Z,5080
2017-07-19T10:49:20.089Z,4895
2017-07-19T10:50:20.082Z,4515
2017-07-19T10:51:19.772Z,5045
2017-07-19T10:52:20.082Z,5285
2017-07-19T10:53:19.448Z,4805
2017-07-19T10:54:19.463Z,4700
2017-07-19T10:55:19.754Z,4550
2017-07-19T10:56:20.064Z,4375
2017-07-19T10:57:19.742Z,4120
2017-07-19T10:58:19.743Z,4175
2017-07-19T10:59:19.734Z,4665
2017-07-19T11:00:19.733Z,4445
2017-07-19T11:01:19.714Z,4225
2017-07-19T11:02:19.726Z,4365
2017-07-19T11:03:20.057Z,4030
2017-07-19T11:04:19.702Z,3890
2017-07-19T11:05:19.722Z,4155
2017-07-19T11:06:19.706Z,4300
2017-07-19T11:07:19.985Z,4785
2017-07-19T11:08:19.736Z,5060
2017-07-19T11:09:19.976Z,4975
2017-07-19T11:10:19.979Z,5300
2017-07-19T11:11:19.988Z,5340
2017-07-19T11:12:19.990Z,5505
2017-07-19T11:13:19.963Z,6165
2017-07-19T11:14:19.965Z,6305
2017-07-19T11:15:19.963Z,5615
2017-07-19T11:16:19.958Z,4755
2017-07-19T11:17:19.964Z,4805
2017-07-19T11:18:19.658Z,4665
2017-07-19T11:19:19.660Z,4605
2017-07-19T11:20:19.956Z,4770
2017-07-19T11:21:19.941Z,4635
2017-07-19T11:22:19.929Z,4730
2017-07-19T11:23:19.624Z,4610
2017-07-19T11:24:19.610Z,4205
2017-07-19T11:25:19.622Z,4385
2017-07-19T11:26:19.925Z,4995
2017-07-19T11:27:19.613Z,5115
2017-07-19T11:28:19.897Z,4975
2017-07-19T11:29:19.909Z,4630
2017-07-19T11:30:19.613Z,4355
2017-07-19T11:31:19.936Z,4755
2017-07-19T11:32:19.287Z,5660
2017-07-19T11:33:19.592Z,5735
2017-07-19T11:34:19.271Z,4575
2017-07-19T11:35:19.280Z,4250
2017-07-19T11:36:19.572Z,4400
2017-07-19T11:37:19.584Z,3850
2017-07-19T11:38:19.882Z,4600
2017-07-19T11:39:19.890Z,4885
2017-07-19T11:40:19.872Z,4825
2017-07-19T11:41:19.846Z,5235
2017-07-19T11:42:19.861Z,5050
2017-07-19T11:43:19.849Z,4740
2017-07-19T11:44:19.836Z,4385
2017-07-19T11:45:19.845Z,4520
2017-07-19T11:46:19.830Z,4500
2017-07-19T11:47:19.828Z,4435
2017-07-19T11:48:19.830Z,3840
2017-07-19T11:49:19.812Z,3620
2017-07-19T11:50:19.824Z,4505
2017-07-19T11:51:19.818Z,4745
2017-07-19T11:52:19.804Z,4505
2017-07-19T11:53:19.802Z,4240
2017-07-19T11:54:19.795Z,4205
2017-07-19T11:55:19.806Z,4575
2017-07-19T11:56:19.801Z,4685
2017-07-19T11:57:19.789Z,5000
2017-07-19T11:58:19.794Z,5910
2017-07-19T11:59:19.770Z,5465
2017-07-19T12:00:19.782Z,4470
2017-07-19T12:01:19.464Z,4335
2017-07-19T12:02:19.781Z,4710
2017-07-19T12:03:19.472Z,4935
2017-07-19T12:04:19.770Z,4645
2017-07-19T12:05:19.778Z,5360
2017-07-19T12:06:19.470Z,5875
2017-07-19T12:07:19.778Z,5900
2017-07-19T12:08:19.154Z,6550
2017-07-19T12:09:19.761Z,5915
2017-07-19T12:10:19.451Z,5275
2017-07-19T12:11:19.743Z,4960
2017-07-19T12:12:19.759Z,4230
2017-07-19T12:13:19.450Z,4190
2017-07-19T12:14:19.729Z,3380
2017-07-19T12:15:19.729Z,2765
2017-07-19T12:16:19.421Z,2450
2017-07-19T12:17:19.722Z,2055
2017-07-19T12:18:19.425Z,2185
2017-07-19T12:19:19.712Z,2165
2017-07-19T12:20:19.704Z,2085
2017-07-19T12:21:19.417Z,2200
2017-07-19T12:22:19.717Z,2600
2017-07-19T12:23:19.720Z,2770
2017-07-19T12:24:19.105Z,2565
2017-07-19T12:25:19.713Z,2955
2017-07-19T12:26:19.715Z,3295
2017-07-19T12:27:19.098Z,3930
2017-07-19T12:28:19.390Z,3990
2017-07-19T12:29:19.391Z,3820
2017-07-19T12:30:19.669Z,4350
2017-07-19T12:31:19.691Z,4955
2017-07-19T12:32:19.373Z,5550
2017-07-19T12:33:19.381Z,5885
2017-07-19T12:34:19.684Z,5880
2017-07-19T12:35:19.359Z,5540
2017-07-19T12:36:19.358Z,6010
2017-07-19T12:37:19.658Z,6610
2017-07-19T12:38:19.364Z,6100
2017-07-19T12:39:19.355Z,5050
2017-07-19T12:40:19.335Z,4495
2017-07-19T12:41:19.354Z,4215
2017-07-19T12:42:19.643Z,4830
2017-07-19T12:43:19.336Z,5190
2017-07-19T12:44:19.636Z,4615
2017-07-19T12:45:19.037Z,4360
2017-07-19T12:46:19.637Z,4035
2017-07-19T12:47:19.634Z,4170
2017-07-19T12:48:19.332Z,4230
2017-07-19T12:49:19.029Z,3725
2017-07-19T12:50:19.327Z,3620
2017-07-19T12:51:19.309Z,4085
2017-07-19T12:52:19.312Z,4535
2017-07-19T12:53:19.312Z,4610
2017-07-19T12:54:19.299Z,4485
2017-07-19T12:55:19.309Z,4505
2017-07-19T12:56:19.006Z,4380
2017-07-19T12:57:19.603Z,4010
2017-07-19T12:58:19.294Z,4040
2017-07-19T12:59:19.294Z,4235
2017-07-19T13:00:19.294Z,4100
2017-07-19T13:01:19.278Z,4315
2017-07-19T13:02:19.284Z,4560
2017-07-19T13:03:19.281Z,4610
2017-07-19T13:04:18.977Z,4500
2017-07-19T13:05:19.277Z,4360
2017-07-19T13:06:18.975Z,4180
2017-07-19T13:07:19.279Z,4515
2017-07-19T13:08:19.558Z,4425
2017-07-19T13:09:19.260Z,3810
2017-07-19T13:10:19.260Z,3535
2017-07-19T13:11:19.568Z,4040
2017-07-19T13:12:19.259Z,4395
2017-07-19T13:13:19.557Z,4340
2017-07-19T13:14:19.247Z,4595
2017-07-19T13:15:19.576Z,4800
2017-07-19T13:16:19.549Z,4625
2017-07-19T13:17:19.531Z,4340
2017-07-19T13:18:19.548Z,4215
2017-07-19T13:19:19.552Z,4155
2017-07-19T13:20:19.552Z,3990
2017-07-19T13:21:19.520Z,2350
2017-07-19T13:22:19.222Z,4115
2017-07-19T13:23:19.527Z,3310
2017-07-19T13:24:19.263Z,2940
2017-07-19T13:25:19.504Z,3350
2017-07-19T13:26:19.216Z,3920
2017-07-19T13:27:19.204Z,3760
2017-07-19T13:28:19.523Z,3455
2017-07-19T13:29:19.209Z,3635
2017-07-19T13:30:19.511Z,3970
2017-07-19T13:31:19.205Z,3980
2017-07-19T13:32:19.497Z,3985
2017-07-19T13:33:19.492Z,3800
2017-07-19T13:34:19.489Z,3510
2017-07-19T13:35:19.501Z,3405
2017-07-19T13:36:19.200Z,3515
2017-07-19T13:37:19.195Z,3455
2017-07-19T13:38:19.478Z,3570
2017-07-19T13:39:19.495Z,3840
2017-07-19T13:40:19.473Z,3815
2017-07-19T13:41:19.472Z,3835
2017-07-19T13:42:19.158Z,3935
2017-07-19T13:43:19.472Z,3945
2017-07-19T13:44:19.487Z,3630
2017-07-19T13:45:19.489Z,3400
2017-07-19T13:46:19.469Z,3440
2017-07-19T13:47:19.479Z,3625
2017-07-19T13:48:19.472Z,3650
2017-07-19T13:49:19.147Z,3735
2017-07-19T13:50:19.444Z,3945
2017-07-19T13:51:19.455Z,3770